sensor_id;sensor_type;location;lat;lon;timestamp;P1;durP1;ratioP1;P2;durP2;ratioP2
16173;SDS011;14031;50.158;8.626;2022-12-29T00:00:16;1.90;;;1.80;;
16173;SDS011;14031;50.158;8.626;2022-12-29T00:02:43;2.20;;;2.10;;
16173;SDS011;14031;50.158;8.626;2022-12-29T00:05:12;2.00;;;1.87;;
16173;SDS011;14031;50.158;8.626;2022-12-29T00:07:40;2.20;;;2.03;;
16173;SDS011;14031;50.158;8.626;2022-12-29T00:10:07;2.20;;;2.03;;
16173;SDS011;14031;50.158;8.626;2022-12-29T00:12:34;1.80;;;1.70;;
16173;SDS011;14031;50.158;8.626;2022-12-29T00:15:18;2.93;;;1.83;;
16173;SDS011;14031;50.158;8.626;2022-12-29T00:18:03;2.40;;;2.20;;
16173;SDS011;14031;50.158;8.626;2022-12-29T00:20:32;2.57;;;2.40;;
16173;SDS011;14031;50.158;8.626;2022-12-29T00:23:27;2.20;;;2.00;;
16173;SDS011;14031;50.158;8.626;2022-12-29T00:26:12;1.90;;;1.80;;
16173;SDS011;14031;50.158;8.626;2022-12-29T00:28:57;4.13;;;2.20;;
16173;SDS011;14031;50.158;8.626;2022-12-29T00:31:42;4.30;;;2.07;;
16173;SDS011;14031;50.158;8.626;2022-12-29T00:34:26;1.83;;;1.73;;
16173;SDS011;14031;50.158;8.626;2022-12-29T00:37:10;5.30;;;2.30;;
16173;SDS011;14031;50.158;8.626;2022-12-29T00:39:38;4.63;;;2.40;;
16173;SDS011;14031;50.158;8.626;2022-12-29T00:42:23;3.33;;;2.03;;
16173;SDS011;14031;50.158;8.626;2022-12-29T00:45:07;1.90;;;1.80;;
16173;SDS011;14031;50.158;8.626;2022-12-29T00:47:34;3.20;;;2.00;;
16173;SDS011;14031;50.158;8.626;2022-12-29T00:50:01;2.07;;;1.87;;
16173;SDS011;14031;50.158;8.626;2022-12-29T00:52:27;2.00;;;1.87;;
16173;SDS011;14031;50.158;8.626;2022-12-29T00:54:55;2.10;;;2.00;;
16173;SDS011;14031;50.158;8.626;2022-12-29T00:57:22;2.23;;;2.00;;
16173;SDS011;14031;50.158;8.626;2022-12-29T00:59:49;2.43;;;1.93;;
16173;SDS011;14031;50.158;8.626;2022-12-29T01:02:15;2.33;;;2.00;;
16173;SDS011;14031;50.158;8.626;2022-12-29T01:04:45;3.93;;;1.93;;
16173;SDS011;14031;50.158;8.626;2022-12-29T01:07:17;1.80;;;1.70;;
16173;SDS011;14031;50.158;8.626;2022-12-29T01:09:44;2.57;;;1.70;;
16173;SDS011;14031;50.158;8.626;2022-12-29T01:12:29;1.97;;;1.80;;
16173;SDS011;14031;50.158;8.626;2022-12-29T01:15:10;2.80;;;1.93;;
16173;SDS011;14031;50.158;8.626;2022-12-29T01:17:38;1.40;;;1.40;;
16173;SDS011;14031;50.158;8.626;2022-12-29T01:20:06;4.80;;;1.80;;
16173;SDS011;14031;50.158;8.626;2022-12-29T01:22:33;2.53;;;1.60;;
16173;SDS011;14031;50.158;8.626;2022-12-29T01:25:00;1.97;;;1.87;;
16173;SDS011;14031;50.158;8.626;2022-12-29T01:27:26;1.70;;;1.60;;
16173;SDS011;14031;50.158;8.626;2022-12-29T01:29:55;1.80;;;1.70;;
16173;SDS011;14031;50.158;8.626;2022-12-29T01:32:21;1.73;;;1.57;;
16173;SDS011;14031;50.158;8.626;2022-12-29T01:34:51;1.67;;;1.57;;
16173;SDS011;14031;50.158;8.626;2022-12-29T01:37:17;1.80;;;1.70;;
16173;SDS011;14031;50.158;8.626;2022-12-29T01:39:47;5.50;;;1.67;;
16173;SDS011;14031;50.158;8.626;2022-12-29T01:42:14;1.63;;;1.60;;
16173;SDS011;14031;50.158;8.626;2022-12-29T01:44:53;1.37;;;1.37;;
16173;SDS011;14031;50.158;8.626;2022-12-29T01:47:24;1.47;;;1.37;;
16173;SDS011;14031;50.158;8.626;2022-12-29T01:49:57;4.93;;;1.80;;
16173;SDS011;14031;50.158;8.626;2022-12-29T01:52:27;1.60;;;1.50;;
16173;SDS011;14031;50.158;8.626;2022-12-29T01:54:57;4.57;;;1.93;;
16173;SDS011;14031;50.158;8.626;2022-12-29T01:57:28;1.97;;;1.70;;
16173;SDS011;14031;50.158;8.626;2022-12-29T02:00:01;1.63;;;1.50;;
16173;SDS011;14031;50.158;8.626;2022-12-29T02:02:30;1.57;;;1.50;;
16173;SDS011;14031;50.158;8.626;2022-12-29T02:05:01;1.40;;;1.33;;
16173;SDS011;14031;50.158;8.626;2022-12-29T02:07:35;1.63;;;1.53;;
16173;SDS011;14031;50.158;8.626;2022-12-29T02:10:03;1.37;;;1.37;;
16173;SDS011;14031;50.158;8.626;2022-12-29T02:12:30;3.07;;;1.77;;
16173;SDS011;14031;50.158;8.626;2022-12-29T02:15:00;1.43;;;1.33;;
16173;SDS011;14031;50.158;8.626;2022-12-29T02:17:35;1.53;;;1.40;;
16173;SDS011;14031;50.158;8.626;2022-12-29T02:23:27;1.53;;;1.43;;
16173;SDS011;14031;50.158;8.626;2022-12-29T02:29:08;1.53;;;1.43;;
16173;SDS011;14031;50.158;8.626;2022-12-29T02:32:03;2.77;;;1.30;;
16173;SDS011;14031;50.158;8.626;2022-12-29T02:34:40;2.00;;;1.50;;
16173;SDS011;14031;50.158;8.626;2022-12-29T02:37:15;1.40;;;1.30;;
16173;SDS011;14031;50.158;8.626;2022-12-29T02:39:50;1.33;;;1.23;;
16173;SDS011;14031;50.158;8.626;2022-12-29T02:42:26;1.83;;;1.23;;
16173;SDS011;14031;50.158;8.626;2022-12-29T02:45:03;1.63;;;1.20;;
16173;SDS011;14031;50.158;8.626;2022-12-29T02:47:37;1.47;;;1.37;;
16173;SDS011;14031;50.158;8.626;2022-12-29T02:50:08;1.67;;;1.20;;
16173;SDS011;14031;50.158;8.626;2022-12-29T02:52:43;1.30;;;1.30;;
16173;SDS011;14031;50.158;8.626;2022-12-29T02:55:16;1.43;;;1.33;;
16173;SDS011;14031;50.158;8.626;2022-12-29T02:57:41;1.80;;;1.33;;
16173;SDS011;14031;50.158;8.626;2022-12-29T03:00:10;1.40;;;1.30;;
16173;SDS011;14031;50.158;8.626;2022-12-29T03:02:46;1.53;;;1.43;;
16173;SDS011;14031;50.158;8.626;2022-12-29T03:05:37;1.40;;;1.30;;
16173;SDS011;14031;50.158;8.626;2022-12-29T03:08:34;2.30;;;1.30;;
16173;SDS011;14031;50.158;8.626;2022-12-29T03:11:12;4.10;;;0.93;;
16173;SDS011;14031;50.158;8.626;2022-12-29T03:13:55;1.53;;;1.10;;
16173;SDS011;14031;50.158;8.626;2022-12-29T03:16:43;1.30;;;1.27;;
16173;SDS011;14031;50.158;8.626;2022-12-29T03:19:15;3.80;;;1.97;;
16173;SDS011;14031;50.158;8.626;2022-12-29T03:21:49;1.17;;;1.10;;
16173;SDS011;14031;50.158;8.626;2022-12-29T03:24:40;0.80;;;0.80;;
16173;SDS011;14031;50.158;8.626;2022-12-29T03:27:17;0.97;;;0.97;;
16173;SDS011;14031;50.158;8.626;2022-12-29T03:29:49;1.30;;;1.00;;
16173;SDS011;14031;50.158;8.626;2022-12-29T03:32:22;1.20;;;1.10;;
16173;SDS011;14031;50.158;8.626;2022-12-29T03:34:54;1.20;;;0.90;;
16173;SDS011;14031;50.158;8.626;2022-12-29T03:37:23;1.37;;;1.13;;
16173;SDS011;14031;50.158;8.626;2022-12-29T03:39:55;1.20;;;1.10;;
16173;SDS011;14031;50.158;8.626;2022-12-29T03:42:25;1.23;;;1.07;;
16173;SDS011;14031;50.158;8.626;2022-12-29T03:44:55;1.30;;;1.30;;
16173;SDS011;14031;50.158;8.626;2022-12-29T03:47:23;7.30;;;1.10;;
16173;SDS011;14031;50.158;8.626;2022-12-29T03:49:54;1.43;;;1.33;;
16173;SDS011;14031;50.158;8.626;2022-12-29T03:52:21;1.23;;;1.20;;
16173;SDS011;14031;50.158;8.626;2022-12-29T03:54:48;1.27;;;1.07;;
16173;SDS011;14031;50.158;8.626;2022-12-29T03:57:15;1.30;;;1.20;;
16173;SDS011;14031;50.158;8.626;2022-12-29T03:59:41;1.63;;;1.13;;
16173;SDS011;14031;50.158;8.626;2022-12-29T04:02:08;1.10;;;1.10;;
16173;SDS011;14031;50.158;8.626;2022-12-29T04:04:38;4.10;;;1.13;;
16173;SDS011;14031;50.158;8.626;2022-12-29T04:07:06;1.10;;;1.10;;
16173;SDS011;14031;50.158;8.626;2022-12-29T04:09:33;2.83;;;1.30;;
16173;SDS011;14031;50.158;8.626;2022-12-29T04:12:00;1.50;;;1.40;;
16173;SDS011;14031;50.158;8.626;2022-12-29T04:14:27;3.33;;;1.10;;
16173;SDS011;14031;50.158;8.626;2022-12-29T04:16:53;3.33;;;1.23;;
16173;SDS011;14031;50.158;8.626;2022-12-29T04:19:20;1.20;;;1.20;;
16173;SDS011;14031;50.158;8.626;2022-12-29T04:21:47;1.40;;;1.30;;
16173;SDS011;14031;50.158;8.626;2022-12-29T04:24:16;3.47;;;1.60;;
16173;SDS011;14031;50.158;8.626;2022-12-29T04:26:43;2.87;;;1.30;;
16173;SDS011;14031;50.158;8.626;2022-12-29T04:29:10;1.87;;;1.33;;
16173;SDS011;14031;50.158;8.626;2022-12-29T04:31:36;1.90;;;1.33;;
16173;SDS011;14031;50.158;8.626;2022-12-29T04:34:03;1.20;;;1.10;;
16173;SDS011;14031;50.158;8.626;2022-12-29T04:36:30;1.97;;;1.07;;
16173;SDS011;14031;50.158;8.626;2022-12-29T04:38:57;1.60;;;1.50;;
16173;SDS011;14031;50.158;8.626;2022-12-29T04:41:25;8.30;;;1.60;;
16173;SDS011;14031;50.158;8.626;2022-12-29T04:43:53;2.10;;;1.30;;
16173;SDS011;14031;50.158;8.626;2022-12-29T04:46:20;4.70;;;1.30;;
16173;SDS011;14031;50.158;8.626;2022-12-29T04:48:46;1.13;;;1.10;;
16173;SDS011;14031;50.158;8.626;2022-12-29T04:51:13;2.83;;;1.13;;
16173;SDS011;14031;50.158;8.626;2022-12-29T04:53:40;2.00;;;1.50;;
16173;SDS011;14031;50.158;8.626;2022-12-29T04:56:07;1.50;;;1.40;;
16173;SDS011;14031;50.158;8.626;2022-12-29T04:58:35;2.73;;;1.30;;
16173;SDS011;14031;50.158;8.626;2022-12-29T05:01:03;2.10;;;1.40;;
16173;SDS011;14031;50.158;8.626;2022-12-29T05:03:29;1.30;;;1.20;;
16173;SDS011;14031;50.158;8.626;2022-12-29T05:05:56;1.30;;;1.20;;
16173;SDS011;14031;50.158;8.626;2022-12-29T05:08:23;2.60;;;1.30;;
16173;SDS011;14031;50.158;8.626;2022-12-29T05:10:50;1.63;;;1.20;;
16173;SDS011;14031;50.158;8.626;2022-12-29T05:13:17;1.30;;;1.30;;
16173;SDS011;14031;50.158;8.626;2022-12-29T05:15:47;1.17;;;1.17;;
16173;SDS011;14031;50.158;8.626;2022-12-29T05:18:15;1.40;;;1.30;;
16173;SDS011;14031;50.158;8.626;2022-12-29T05:20:42;5.00;;;1.40;;
16173;SDS011;14031;50.158;8.626;2022-12-29T05:23:09;2.67;;;1.33;;
16173;SDS011;14031;50.158;8.626;2022-12-29T05:25:36;2.00;;;1.23;;
16173;SDS011;14031;50.158;8.626;2022-12-29T05:28:03;3.07;;;1.33;;
16173;SDS011;14031;50.158;8.626;2022-12-29T05:30:29;1.40;;;1.30;;
16173;SDS011;14031;50.158;8.626;2022-12-29T05:32:58;1.70;;;1.63;;
16173;SDS011;14031;50.158;8.626;2022-12-29T05:35:24;2.00;;;1.10;;
16173;SDS011;14031;50.158;8.626;2022-12-29T05:37:51;1.40;;;1.30;;
16173;SDS011;14031;50.158;8.626;2022-12-29T05:40:18;2.17;;;1.20;;
16173;SDS011;14031;50.158;8.626;2022-12-29T05:42:45;3.83;;;1.30;;
16173;SDS011;14031;50.158;8.626;2022-12-29T05:45:11;1.70;;;1.30;;
16173;SDS011;14031;50.158;8.626;2022-12-29T05:47:38;1.73;;;1.20;;
16173;SDS011;14031;50.158;8.626;2022-12-29T05:50:07;1.47;;;1.30;;
16173;SDS011;14031;50.158;8.626;2022-12-29T05:52:34;1.50;;;1.20;;
16173;SDS011;14031;50.158;8.626;2022-12-29T05:55:01;1.13;;;1.00;;
16173;SDS011;14031;50.158;8.626;2022-12-29T05:57:27;1.00;;;1.00;;
16173;SDS011;14031;50.158;8.626;2022-12-29T05:59:55;1.20;;;1.13;;
16173;SDS011;14031;50.158;8.626;2022-12-29T06:02:22;1.47;;;1.20;;
16173;SDS011;14031;50.158;8.626;2022-12-29T06:04:49;1.20;;;1.10;;
16173;SDS011;14031;50.158;8.626;2022-12-29T06:07:17;1.00;;;1.00;;
16173;SDS011;14031;50.158;8.626;2022-12-29T06:09:44;1.20;;;1.13;;
16173;SDS011;14031;50.158;8.626;2022-12-29T06:12:11;1.30;;;1.23;;
16173;SDS011;14031;50.158;8.626;2022-12-29T06:14:37;1.10;;;1.00;;
16173;SDS011;14031;50.158;8.626;2022-12-29T06:17:04;3.00;;;1.30;;
16173;SDS011;14031;50.158;8.626;2022-12-29T06:19:31;1.27;;;1.17;;
16173;SDS011;14031;50.158;8.626;2022-12-29T06:21:58;2.33;;;1.10;;
16173;SDS011;14031;50.158;8.626;2022-12-29T06:24:26;1.47;;;1.20;;
16173;SDS011;14031;50.158;8.626;2022-12-29T06:26:53;2.50;;;1.30;;
16173;SDS011;14031;50.158;8.626;2022-12-29T06:29:20;1.37;;;1.37;;
16173;SDS011;14031;50.158;8.626;2022-12-29T06:31:46;1.67;;;1.30;;
16173;SDS011;14031;50.158;8.626;2022-12-29T06:34:14;2.93;;;1.77;;
16173;SDS011;14031;50.158;8.626;2022-12-29T06:36:41;1.30;;;1.20;;
16173;SDS011;14031;50.158;8.626;2022-12-29T06:39:07;1.03;;;1.03;;
16173;SDS011;14031;50.158;8.626;2022-12-29T06:41:36;2.60;;;1.07;;
16173;SDS011;14031;50.158;8.626;2022-12-29T06:44:02;1.57;;;1.47;;
16173;SDS011;14031;50.158;8.626;2022-12-29T06:46:29;1.27;;;1.20;;
16173;SDS011;14031;50.158;8.626;2022-12-29T06:48:56;1.40;;;1.30;;
16173;SDS011;14031;50.158;8.626;2022-12-29T06:51:23;1.87;;;1.47;;
16173;SDS011;14031;50.158;8.626;2022-12-29T06:53:50;2.27;;;1.37;;
16173;SDS011;14031;50.158;8.626;2022-12-29T06:56:16;1.50;;;1.40;;
16173;SDS011;14031;50.158;8.626;2022-12-29T06:58:45;1.60;;;1.50;;
16173;SDS011;14031;50.158;8.626;2022-12-29T07:01:11;2.27;;;1.37;;
16173;SDS011;14031;50.158;8.626;2022-12-29T07:03:40;1.43;;;1.30;;
16173;SDS011;14031;50.158;8.626;2022-12-29T07:06:07;2.60;;;1.30;;
16173;SDS011;14031;50.158;8.626;2022-12-29T07:08:34;3.10;;;1.67;;
16173;SDS011;14031;50.158;8.626;2022-12-29T07:11:01;1.23;;;1.20;;
16173;SDS011;14031;50.158;8.626;2022-12-29T07:13:28;1.60;;;1.50;;
16173;SDS011;14031;50.158;8.626;2022-12-29T07:15:56;1.77;;;1.67;;
16173;SDS011;14031;50.158;8.626;2022-12-29T07:18:23;3.60;;;1.60;;
16173;SDS011;14031;50.158;8.626;2022-12-29T07:20:49;1.60;;;1.53;;
16173;SDS011;14031;50.158;8.626;2022-12-29T07:23:16;1.90;;;1.80;;
16173;SDS011;14031;50.158;8.626;2022-12-29T07:25:43;4.40;;;1.70;;
16173;SDS011;14031;50.158;8.626;2022-12-29T07:28:10;1.80;;;1.70;;
16173;SDS011;14031;50.158;8.626;2022-12-29T07:30:37;2.30;;;2.10;;
16173;SDS011;14031;50.158;8.626;2022-12-29T07:33:05;1.97;;;1.80;;
16173;SDS011;14031;50.158;8.626;2022-12-29T07:35:33;2.73;;;2.40;;
16173;SDS011;14031;50.158;8.626;2022-12-29T07:38:00;5.80;;;1.93;;
16173;SDS011;14031;50.158;8.626;2022-12-29T07:40:27;2.60;;;1.80;;
16173;SDS011;14031;50.158;8.626;2022-12-29T07:42:53;2.27;;;1.80;;
16173;SDS011;14031;50.158;8.626;2022-12-29T07:45:20;4.00;;;1.87;;
16173;SDS011;14031;50.158;8.626;2022-12-29T07:47:47;3.43;;;1.80;;
16173;SDS011;14031;50.158;8.626;2022-12-29T07:50:16;2.87;;;2.40;;
16173;SDS011;14031;50.158;8.626;2022-12-29T07:52:43;2.93;;;2.00;;
16173;SDS011;14031;50.158;8.626;2022-12-29T07:55:11;2.47;;;2.20;;
16173;SDS011;14031;50.158;8.626;2022-12-29T07:57:38;2.70;;;1.87;;
16173;SDS011;14031;50.158;8.626;2022-12-29T08:00:06;3.30;;;2.00;;
16173;SDS011;14031;50.158;8.626;2022-12-29T08:02:34;3.33;;;2.13;;
16173;SDS011;14031;50.158;8.626;2022-12-29T08:05:01;2.30;;;2.20;;
16173;SDS011;14031;50.158;8.626;2022-12-29T08:07:29;1.80;;;1.70;;
16173;SDS011;14031;50.158;8.626;2022-12-29T08:09:56;2.70;;;2.00;;
16173;SDS011;14031;50.158;8.626;2022-12-29T08:12:23;2.77;;;2.07;;
16173;SDS011;14031;50.158;8.626;2022-12-29T08:14:50;3.47;;;1.87;;
16173;SDS011;14031;50.158;8.626;2022-12-29T08:17:17;1.70;;;1.60;;
16173;SDS011;14031;50.158;8.626;2022-12-29T08:19:43;2.63;;;1.90;;
16173;SDS011;14031;50.158;8.626;2022-12-29T08:22:10;2.23;;;2.10;;
16173;SDS011;14031;50.158;8.626;2022-12-29T08:24:38;2.63;;;1.87;;
16173;SDS011;14031;50.158;8.626;2022-12-29T08:27:05;2.27;;;2.07;;
16173;SDS011;14031;50.158;8.626;2022-12-29T08:29:32;2.37;;;2.10;;
16173;SDS011;14031;50.158;8.626;2022-12-29T08:31:59;2.40;;;2.20;;
16173;SDS011;14031;50.158;8.626;2022-12-29T08:34:26;1.90;;;1.80;;
16173;SDS011;14031;50.158;8.626;2022-12-29T08:36:52;2.80;;;2.20;;
16173;SDS011;14031;50.158;8.626;2022-12-29T08:39:19;3.17;;;2.87;;
16173;SDS011;14031;50.158;8.626;2022-12-29T08:41:47;3.13;;;2.73;;
16173;SDS011;14031;50.158;8.626;2022-12-29T08:44:14;2.20;;;2.10;;
16173;SDS011;14031;50.158;8.626;2022-12-29T08:46:41;2.17;;;2.00;;
16173;SDS011;14031;50.158;8.626;2022-12-29T08:49:08;3.03;;;2.17;;
16173;SDS011;14031;50.158;8.626;2022-12-29T08:51:35;2.20;;;2.10;;
16173;SDS011;14031;50.158;8.626;2022-12-29T08:54:01;7.53;;;2.70;;
16173;SDS011;14031;50.158;8.626;2022-12-29T08:56:28;3.23;;;2.10;;
16173;SDS011;14031;50.158;8.626;2022-12-29T08:58:56;4.03;;;2.50;;
16173;SDS011;14031;50.158;8.626;2022-12-29T09:01:23;2.40;;;2.20;;
16173;SDS011;14031;50.158;8.626;2022-12-29T09:03:50;3.27;;;3.00;;
16173;SDS011;14031;50.158;8.626;2022-12-29T09:06:23;4.67;;;2.30;;
16173;SDS011;14031;50.158;8.626;2022-12-29T09:08:50;4.33;;;3.67;;
16173;SDS011;14031;50.158;8.626;2022-12-29T09:11:21;8.00;;;3.83;;
16173;SDS011;14031;50.158;8.626;2022-12-29T09:13:50;2.83;;;2.53;;
16173;SDS011;14031;50.158;8.626;2022-12-29T09:16:20;2.10;;;2.00;;
16173;SDS011;14031;50.158;8.626;2022-12-29T09:18:47;2.63;;;2.23;;
16173;SDS011;14031;50.158;8.626;2022-12-29T09:21:14;3.53;;;2.43;;
16173;SDS011;14031;50.158;8.626;2022-12-29T09:23:41;2.30;;;2.10;;
16173;SDS011;14031;50.158;8.626;2022-12-29T09:26:08;5.17;;;4.77;;
16173;SDS011;14031;50.158;8.626;2022-12-29T09:28:35;2.57;;;2.27;;
16173;SDS011;14031;50.158;8.626;2022-12-29T09:31:02;2.80;;;2.60;;
16173;SDS011;14031;50.158;8.626;2022-12-29T09:33:30;7.30;;;2.60;;
16173;SDS011;14031;50.158;8.626;2022-12-29T09:35:59;2.73;;;2.50;;
16173;SDS011;14031;50.158;8.626;2022-12-29T09:38:26;3.53;;;2.97;;
16173;SDS011;14031;50.158;8.626;2022-12-29T09:40:54;4.53;;;2.97;;
16173;SDS011;14031;50.158;8.626;2022-12-29T09:43:25;5.00;;;3.00;;
16173;SDS011;14031;50.158;8.626;2022-12-29T09:46:07;4.73;;;2.90;;
16173;SDS011;14031;50.158;8.626;2022-12-29T09:48:44;5.67;;;2.83;;
16173;SDS011;14031;50.158;8.626;2022-12-29T09:51:15;3.10;;;2.90;;
16173;SDS011;14031;50.158;8.626;2022-12-29T09:53:49;5.27;;;3.10;;
16173;SDS011;14031;50.158;8.626;2022-12-29T09:56:19;5.57;;;3.47;;
16173;SDS011;14031;50.158;8.626;2022-12-29T09:58:49;8.97;;;2.87;;
16173;SDS011;14031;50.158;8.626;2022-12-29T10:01:22;6.43;;;2.90;;
16173;SDS011;14031;50.158;8.626;2022-12-29T10:03:58;7.23;;;3.90;;
16173;SDS011;14031;50.158;8.626;2022-12-29T10:06:30;3.40;;;3.03;;
16173;SDS011;14031;50.158;8.626;2022-12-29T10:09:04;3.27;;;3.07;;
16173;SDS011;14031;50.158;8.626;2022-12-29T10:11:52;4.17;;;3.10;;
16173;SDS011;14031;50.158;8.626;2022-12-29T10:14:35;6.07;;;2.73;;
16173;SDS011;14031;50.158;8.626;2022-12-29T10:17:20;4.17;;;3.37;;
16173;SDS011;14031;50.158;8.626;2022-12-29T10:19:57;3.67;;;2.10;;
16173;SDS011;14031;50.158;8.626;2022-12-29T10:22:38;3.63;;;2.17;;
16173;SDS011;14031;50.158;8.626;2022-12-29T10:25:24;3.73;;;1.93;;
16173;SDS011;14031;50.158;8.626;2022-12-29T10:27:55;2.70;;;2.60;;
16173;SDS011;14031;50.158;8.626;2022-12-29T10:30:24;2.93;;;2.73;;
16173;SDS011;14031;50.158;8.626;2022-12-29T10:32:52;1.40;;;1.40;;
16173;SDS011;14031;50.158;8.626;2022-12-29T10:35:23;4.63;;;2.87;;
16173;SDS011;14031;50.158;8.626;2022-12-29T10:37:53;1.80;;;1.50;;
16173;SDS011;14031;50.158;8.626;2022-12-29T10:40:28;1.60;;;1.50;;
16173;SDS011;14031;50.158;8.626;2022-12-29T10:43:05;1.40;;;1.30;;
16173;SDS011;14031;50.158;8.626;2022-12-29T10:45:44;1.53;;;1.43;;
16173;SDS011;14031;50.158;8.626;2022-12-29T10:48:12;2.30;;;2.10;;
16173;SDS011;14031;50.158;8.626;2022-12-29T10:50:48;2.73;;;1.67;;
16173;SDS011;14031;50.158;8.626;2022-12-29T10:53:18;7.17;;;2.07;;
16173;SDS011;14031;50.158;8.626;2022-12-29T10:55:48;1.70;;;1.60;;
16173;SDS011;14031;50.158;8.626;2022-12-29T10:58:16;1.53;;;1.20;;
16173;SDS011;14031;50.158;8.626;2022-12-29T11:00:47;1.60;;;0.93;;
16173;SDS011;14031;50.158;8.626;2022-12-29T11:06:27;1.00;;;0.90;;
16173;SDS011;14031;50.158;8.626;2022-12-29T11:08:56;1.47;;;1.00;;
16173;SDS011;14031;50.158;8.626;2022-12-29T11:11:28;1.13;;;1.03;;
16173;SDS011;14031;50.158;8.626;2022-12-29T11:14:01;2.23;;;0.93;;
16173;SDS011;14031;50.158;8.626;2022-12-29T11:16:34;2.77;;;1.10;;
16173;SDS011;14031;50.158;8.626;2022-12-29T11:19:01;1.30;;;1.03;;
16173;SDS011;14031;50.158;8.626;2022-12-29T11:21:32;1.87;;;1.77;;
16173;SDS011;14031;50.158;8.626;2022-12-29T11:24:05;1.40;;;1.07;;
16173;SDS011;14031;50.158;8.626;2022-12-29T11:26:45;1.40;;;0.80;;
16173;SDS011;14031;50.158;8.626;2022-12-29T11:29:17;1.83;;;1.73;;
16173;SDS011;14031;50.158;8.626;2022-12-29T11:31:49;2.17;;;1.67;;
16173;SDS011;14031;50.158;8.626;2022-12-29T11:34:17;2.20;;;1.83;;
16173;SDS011;14031;50.158;8.626;2022-12-29T11:36:47;2.53;;;1.73;;
16173;SDS011;14031;50.158;8.626;2022-12-29T11:39:24;3.23;;;1.50;;
16173;SDS011;14031;50.158;8.626;2022-12-29T11:41:55;3.07;;;1.70;;
16173;SDS011;14031;50.158;8.626;2022-12-29T11:44:23;7.07;;;2.17;;
16173;SDS011;14031;50.158;8.626;2022-12-29T11:46:51;3.97;;;1.43;;
16173;SDS011;14031;50.158;8.626;2022-12-29T11:49:19;1.30;;;0.73;;
16173;SDS011;14031;50.158;8.626;2022-12-29T11:51:50;1.60;;;1.00;;
16173;SDS011;14031;50.158;8.626;2022-12-29T11:54:21;1.50;;;1.00;;
16173;SDS011;14031;50.158;8.626;2022-12-29T11:56:51;1.00;;;0.90;;
16173;SDS011;14031;50.158;8.626;2022-12-29T12:02:10;0.73;;;0.73;;
16173;SDS011;14031;50.158;8.626;2022-12-29T12:04:58;0.80;;;0.80;;
16173;SDS011;14031;50.158;8.626;2022-12-29T12:07:34;1.10;;;1.00;;
16173;SDS011;14031;50.158;8.626;2022-12-29T12:10:08;2.27;;;1.00;;
16173;SDS011;14031;50.158;8.626;2022-12-29T12:12:41;3.37;;;0.90;;
16173;SDS011;14031;50.158;8.626;2022-12-29T12:15:29;2.10;;;0.70;;
16173;SDS011;14031;50.158;8.626;2022-12-29T12:18:02;2.83;;;1.13;;
16173;SDS011;14031;50.158;8.626;2022-12-29T12:20:45;0.50;;;0.50;;
16173;SDS011;14031;50.158;8.626;2022-12-29T12:23:28;3.33;;;0.70;;
16173;SDS011;14031;50.158;8.626;2022-12-29T12:26:02;1.80;;;0.87;;
16173;SDS011;14031;50.158;8.626;2022-12-29T12:28:39;4.13;;;3.70;;
16173;SDS011;14031;50.158;8.626;2022-12-29T12:31:15;2.13;;;1.03;;
16173;SDS011;14031;50.158;8.626;2022-12-29T12:33:47;0.93;;;0.80;;
16173;SDS011;14031;50.158;8.626;2022-12-29T12:36:27;1.80;;;0.67;;
16173;SDS011;14031;50.158;8.626;2022-12-29T12:39:22;0.60;;;0.60;;
16173;SDS011;14031;50.158;8.626;2022-12-29T12:41:55;1.00;;;0.80;;
16173;SDS011;14031;50.158;8.626;2022-12-29T12:44:33;1.87;;;0.90;;
16173;SDS011;14031;50.158;8.626;2022-12-29T12:47:10;1.33;;;0.73;;
16173;SDS011;14031;50.158;8.626;2022-12-29T12:50:01;2.20;;;1.27;;
16173;SDS011;14031;50.158;8.626;2022-12-29T12:52:43;1.00;;;0.87;;
16173;SDS011;14031;50.158;8.626;2022-12-29T12:55:30;1.10;;;1.00;;
16173;SDS011;14031;50.158;8.626;2022-12-29T12:58:17;3.40;;;1.10;;
16173;SDS011;14031;50.158;8.626;2022-12-29T13:00:56;1.73;;;1.00;;
16173;SDS011;14031;50.158;8.626;2022-12-29T13:03:38;1.70;;;1.00;;
16173;SDS011;14031;50.158;8.626;2022-12-29T13:06:16;1.37;;;1.00;;
16173;SDS011;14031;50.158;8.626;2022-12-29T13:08:56;1.27;;;1.10;;
16173;SDS011;14031;50.158;8.626;2022-12-29T13:11:42;1.13;;;1.07;;
16173;SDS011;14031;50.158;8.626;2022-12-29T13:14:24;1.20;;;1.07;;
16173;SDS011;14031;50.158;8.626;2022-12-29T13:17:00;1.80;;;1.27;;
16173;SDS011;14031;50.158;8.626;2022-12-29T13:19:34;0.90;;;0.90;;
16173;SDS011;14031;50.158;8.626;2022-12-29T13:22:07;2.23;;;1.17;;
16173;SDS011;14031;50.158;8.626;2022-12-29T13:24:50;2.17;;;1.87;;
16173;SDS011;14031;50.158;8.626;2022-12-29T13:27:31;1.67;;;1.00;;
16173;SDS011;14031;50.158;8.626;2022-12-29T13:30:03;1.10;;;1.00;;
16173;SDS011;14031;50.158;8.626;2022-12-29T13:32:36;1.77;;;1.63;;
16173;SDS011;14031;50.158;8.626;2022-12-29T13:35:19;1.20;;;1.10;;
16173;SDS011;14031;50.158;8.626;2022-12-29T13:37:55;1.20;;;0.90;;
16173;SDS011;14031;50.158;8.626;2022-12-29T13:40:26;1.13;;;1.03;;
16173;SDS011;14031;50.158;8.626;2022-12-29T13:43:01;1.00;;;1.00;;
16173;SDS011;14031;50.158;8.626;2022-12-29T13:45:29;1.23;;;1.00;;
16173;SDS011;14031;50.158;8.626;2022-12-29T13:48:00;0.80;;;0.80;;
16173;SDS011;14031;50.158;8.626;2022-12-29T13:50:33;0.83;;;0.83;;
16173;SDS011;14031;50.158;8.626;2022-12-29T13:53:02;1.30;;;0.97;;
16173;SDS011;14031;50.158;8.626;2022-12-29T13:55:39;1.10;;;1.10;;
16173;SDS011;14031;50.158;8.626;2022-12-29T13:58:14;1.17;;;1.13;;
16173;SDS011;14031;50.158;8.626;2022-12-29T14:00:50;2.27;;;0.87;;
16173;SDS011;14031;50.158;8.626;2022-12-29T14:03:30;1.30;;;1.00;;
16173;SDS011;14031;50.158;8.626;2022-12-29T14:06:12;3.17;;;1.10;;
16173;SDS011;14031;50.158;8.626;2022-12-29T14:08:42;1.43;;;1.20;;
16173;SDS011;14031;50.158;8.626;2022-12-29T14:11:10;1.60;;;1.00;;
16173;SDS011;14031;50.158;8.626;2022-12-29T14:13:42;1.57;;;1.10;;
16173;SDS011;14031;50.158;8.626;2022-12-29T14:16:21;5.00;;;1.47;;
16173;SDS011;14031;50.158;8.626;2022-12-29T14:18:52;1.37;;;1.20;;
16173;SDS011;14031;50.158;8.626;2022-12-29T14:21:20;2.73;;;1.20;;
16173;SDS011;14031;50.158;8.626;2022-12-29T14:23:52;3.97;;;1.20;;
16173;SDS011;14031;50.158;8.626;2022-12-29T14:26:33;2.30;;;1.40;;
16173;SDS011;14031;50.158;8.626;2022-12-29T14:32:36;1.40;;;1.27;;
16173;SDS011;14031;50.158;8.626;2022-12-29T14:38:05;1.50;;;1.00;;
16173;SDS011;14031;50.158;8.626;2022-12-29T14:40:41;2.93;;;1.47;;
16173;SDS011;14031;50.158;8.626;2022-12-29T14:43:11;1.83;;;1.10;;
16173;SDS011;14031;50.158;8.626;2022-12-29T14:45:41;2.27;;;1.50;;
16173;SDS011;14031;50.158;8.626;2022-12-29T14:48:31;1.47;;;1.37;;
16173;SDS011;14031;50.158;8.626;2022-12-29T14:51:02;2.73;;;1.60;;
16173;SDS011;14031;50.158;8.626;2022-12-29T14:53:45;1.50;;;1.20;;
16173;SDS011;14031;50.158;8.626;2022-12-29T14:56:14;1.03;;;1.00;;
16173;SDS011;14031;50.158;8.626;2022-12-29T14:58:44;2.37;;;1.73;;
16173;SDS011;14031;50.158;8.626;2022-12-29T15:01:18;1.00;;;1.00;;
16173;SDS011;14031;50.158;8.626;2022-12-29T15:03:50;1.50;;;1.37;;
16173;SDS011;14031;50.158;8.626;2022-12-29T15:06:20;3.13;;;1.93;;
16173;SDS011;14031;50.158;8.626;2022-12-29T15:08:50;1.90;;;1.00;;
16173;SDS011;14031;50.158;8.626;2022-12-29T15:11:21;2.00;;;1.20;;
16173;SDS011;14031;50.158;8.626;2022-12-29T15:13:49;3.10;;;1.23;;
16173;SDS011;14031;50.158;8.626;2022-12-29T15:16:25;1.87;;;1.10;;
16173;SDS011;14031;50.158;8.626;2022-12-29T15:18:55;3.23;;;1.40;;
16173;SDS011;14031;50.158;8.626;2022-12-29T15:21:23;1.30;;;1.20;;
16173;SDS011;14031;50.158;8.626;2022-12-29T15:23:52;2.33;;;1.40;;
16173;SDS011;14031;50.158;8.626;2022-12-29T15:26:19;3.60;;;1.30;;
16173;SDS011;14031;50.158;8.626;2022-12-29T15:28:48;2.77;;;1.20;;
16173;SDS011;14031;50.158;8.626;2022-12-29T15:31:17;1.17;;;1.07;;